sensor_id;sensor_type;location;lat;lon;timestamp;P1;durP1;ratioP1;P2;durP2;ratioP2
76284;SDS011;71676;50.998;7.098;2023-10-19T00:00:52;10.30;;;5.05;;
76284;SDS011;71676;50.998;7.098;2023-10-19T00:03:21;11.23;;;5.10;;
76284;SDS011;71676;50.998;7.098;2023-10-19T00:05:48;9.35;;;5.03;;
76284;SDS011;71676;50.998;7.098;2023-10-19T00:08:15;11.35;;;5.70;;
76284;SDS011;71676;50.998;7.098;2023-10-19T00:10:43;10.57;;;5.30;;
76284;SDS011;71676;50.998;7.098;2023-10-19T00:13:14;11.48;;;4.95;;
76284;SDS011;71676;50.998;7.098;2023-10-19T00:15:41;10.85;;;5.38;;
76284;SDS011;71676;50.998;7.098;2023-10-19T00:18:13;10.98;;;5.60;;
76284;SDS011;71676;50.998;7.098;2023-10-19T00:20:46;8.65;;;3.97;;
76284;SDS011;71676;50.998;7.098;2023-10-19T00:23:25;11.43;;;5.25;;
76284;SDS011;71676;50.998;7.098;2023-10-19T00:25:54;8.90;;;5.03;;
76284;SDS011;71676;50.998;7.098;2023-10-19T00:28:23;10.20;;;5.10;;
76284;SDS011;71676;50.998;7.098;2023-10-19T00:30:52;8.95;;;4.97;;
76284;SDS011;71676;50.998;7.098;2023-10-19T00:33:19;9.57;;;5.10;;
76284;SDS011;71676;50.998;7.098;2023-10-19T00:35:46;11.10;;;5.38;;
76284;SDS011;71676;50.998;7.098;2023-10-19T00:38:16;9.80;;;5.43;;
76284;SDS011;71676;50.998;7.098;2023-10-19T00:41:04;9.65;;;4.97;;
76284;SDS011;71676;50.998;7.098;2023-10-19T00:43:38;11.00;;;5.82;;
76284;SDS011;71676;50.998;7.098;2023-10-19T00:46:09;10.23;;;5.70;;
76284;SDS011;71676;50.998;7.098;2023-10-19T00:48:40;8.73;;;4.57;;
76284;SDS011;71676;50.998;7.098;2023-10-19T00:51:11;10.68;;;6.05;;
76284;SDS011;71676;50.998;7.098;2023-10-19T00:53:52;10.50;;;5.55;;
76284;SDS011;71676;50.998;7.098;2023-10-19T00:56:20;8.65;;;4.40;;
76284;SDS011;71676;50.998;7.098;2023-10-19T00:58:50;12.45;;;6.13;;
76284;SDS011;71676;50.998;7.098;2023-10-19T01:01:25;11.80;;;6.00;;
76284;SDS011;71676;50.998;7.098;2023-10-19T01:03:54;12.25;;;5.70;;
76284;SDS011;71676;50.998;7.098;2023-10-19T01:06:23;11.23;;;5.22;;
76284;SDS011;71676;50.998;7.098;2023-10-19T01:08:50;11.48;;;6.22;;
76284;SDS011;71676;50.998;7.098;2023-10-19T01:11:17;11.55;;;5.65;;
76284;SDS011;71676;50.998;7.098;2023-10-19T01:13:47;11.05;;;5.72;;
76284;SDS011;71676;50.998;7.098;2023-10-19T01:16:17;10.43;;;5.60;;
76284;SDS011;71676;50.998;7.098;2023-10-19T01:18:47;10.45;;;5.47;;
76284;SDS011;71676;50.998;7.098;2023-10-19T01:21:18;10.63;;;5.28;;
76284;SDS011;71676;50.998;7.098;2023-10-19T01:23:47;10.90;;;5.55;;
76284;SDS011;71676;50.998;7.098;2023-10-19T01:26:14;9.77;;;5.30;;
76284;SDS011;71676;50.998;7.098;2023-10-19T01:28:47;11.25;;;5.90;;
76284;SDS011;71676;50.998;7.098;2023-10-19T01:31:17;10.93;;;5.55;;
76284;SDS011;71676;50.998;7.098;2023-10-19T01:33:56;11.73;;;5.03;;
76284;SDS011;71676;50.998;7.098;2023-10-19T01:36:24;10.57;;;5.30;;
76284;SDS011;71676;50.998;7.098;2023-10-19T01:38:51;12.23;;;4.95;;
76284;SDS011;71676;50.998;7.098;2023-10-19T01:41:20;11.25;;;5.35;;
76284;SDS011;71676;50.998;7.098;2023-10-19T01:43:48;10.98;;;5.63;;
76284;SDS011;71676;50.998;7.098;2023-10-19T01:46:18;12.95;;;5.88;;
76284;SDS011;71676;50.998;7.098;2023-10-19T01:48:49;10.50;;;5.10;;
76284;SDS011;71676;50.998;7.098;2023-10-19T01:51:20;10.30;;;4.88;;
76284;SDS011;71676;50.998;7.098;2023-10-19T01:56:14;12.05;;;5.63;;
76284;SDS011;71676;50.998;7.098;2023-10-19T01:58:42;8.95;;;4.82;;
76284;SDS011;71676;50.998;7.098;2023-10-19T02:01:11;9.48;;;4.82;;
76284;SDS011;71676;50.998;7.098;2023-10-19T02:03:45;9.88;;;5.05;;
76284;SDS011;71676;50.998;7.098;2023-10-19T02:06:12;10.48;;;5.05;;
76284;SDS011;71676;50.998;7.098;2023-10-19T02:08:43;10.00;;;5.22;;
76284;SDS011;71676;50.998;7.098;2023-10-19T02:11:14;8.93;;;4.43;;
76284;SDS011;71676;50.998;7.098;2023-10-19T02:13:44;9.60;;;4.70;;
76284;SDS011;71676;50.998;7.098;2023-10-19T02:16:12;9.05;;;4.90;;
76284;SDS011;71676;50.998;7.098;2023-10-19T02:18:40;10.32;;;4.78;;
76284;SDS011;71676;50.998;7.098;2023-10-19T02:21:08;10.98;;;5.35;;
76284;SDS011;71676;50.998;7.098;2023-10-19T02:23:37;10.23;;;5.15;;
76284;SDS011;71676;50.998;7.098;2023-10-19T02:26:04;8.35;;;4.25;;
76284;SDS011;71676;50.998;7.098;2023-10-19T02:31:02;8.10;;;4.15;;
76284;SDS011;71676;50.998;7.098;2023-10-19T02:33:39;9.45;;;4.30;;
76284;SDS011;71676;50.998;7.098;2023-10-19T02:36:06;10.68;;;4.57;;
76284;SDS011;71676;50.998;7.098;2023-10-19T02:38:38;7.22;;;3.72;;
76284;SDS011;71676;50.998;7.098;2023-10-19T02:41:10;7.13;;;3.50;;
76284;SDS011;71676;50.998;7.098;2023-10-19T02:46:05;7.28;;;3.60;;
76284;SDS011;71676;50.998;7.098;2023-10-19T02:48:32;7.70;;;3.58;;
76284;SDS011;71676;50.998;7.098;2023-10-19T02:50:58;7.63;;;3.53;;
76284;SDS011;71676;50.998;7.098;2023-10-19T02:53:31;8.40;;;3.53;;
76284;SDS011;71676;50.998;7.098;2023-10-19T02:55:59;7.75;;;3.53;;
76284;SDS011;71676;50.998;7.098;2023-10-19T02:58:35;7.15;;;3.30;;
76284;SDS011;71676;50.998;7.098;2023-10-19T03:01:02;8.73;;;3.40;;
76284;SDS011;71676;50.998;7.098;2023-10-19T03:03:37;8.35;;;3.60;;
76284;SDS011;71676;50.998;7.098;2023-10-19T03:06:03;6.43;;;3.05;;
76284;SDS011;71676;50.998;7.098;2023-10-19T03:08:31;9.48;;;3.80;;
76284;SDS011;71676;50.998;7.098;2023-10-19T03:10:58;7.82;;;3.90;;
76284;SDS011;71676;50.998;7.098;2023-10-19T03:13:29;7.05;;;3.58;;
76284;SDS011;71676;50.998;7.098;2023-10-19T03:15:56;7.75;;;3.85;;
76284;SDS011;71676;50.998;7.098;2023-10-19T03:20:51;7.15;;;3.05;;
76284;SDS011;71676;50.998;7.098;2023-10-19T03:25:43;7.85;;;3.88;;
76284;SDS011;71676;50.998;7.098;2023-10-19T03:28:22;7.05;;;3.45;;
76284;SDS011;71676;50.998;7.098;2023-10-19T03:30:51;9.65;;;3.22;;
76284;SDS011;71676;50.998;7.098;2023-10-19T03:35:44;7.75;;;3.00;;
76284;SDS011;71676;50.998;7.098;2023-10-19T03:38:12;6.88;;;3.10;;
76284;SDS011;71676;50.998;7.098;2023-10-19T03:40:42;7.20;;;3.05;;
76284;SDS011;71676;50.998;7.098;2023-10-19T03:43:12;8.25;;;3.03;;
76284;SDS011;71676;50.998;7.098;2023-10-19T03:45:43;12.07;;;3.75;;
76284;SDS011;71676;50.998;7.098;2023-10-19T03:48:17;5.32;;;2.50;;
76284;SDS011;71676;50.998;7.098;2023-10-19T03:50:51;6.78;;;3.05;;
76284;SDS011;71676;50.998;7.098;2023-10-19T03:53:19;6.63;;;3.22;;
76284;SDS011;71676;50.998;7.098;2023-10-19T03:55:46;6.72;;;3.45;;
76284;SDS011;71676;50.998;7.098;2023-10-19T03:58:15;7.70;;;3.15;;
76284;SDS011;71676;50.998;7.098;2023-10-19T04:00:42;7.60;;;3.35;;
76284;SDS011;71676;50.998;7.098;2023-10-19T04:03:09;7.85;;;3.42;;
76284;SDS011;71676;50.998;7.098;2023-10-19T04:05:36;8.25;;;3.67;;
76284;SDS011;71676;50.998;7.098;2023-10-19T04:08:07;6.82;;;3.10;;
76284;SDS011;71676;50.998;7.098;2023-10-19T04:10:40;7.78;;;3.72;;
76284;SDS011;71676;50.998;7.098;2023-10-19T04:13:11;7.22;;;3.45;;
76284;SDS011;71676;50.998;7.098;2023-10-19T04:15:38;7.25;;;3.10;;
76284;SDS011;71676;50.998;7.098;2023-10-19T04:18:06;9.50;;;3.83;;
76284;SDS011;71676;50.998;7.098;2023-10-19T04:20:35;9.65;;;3.97;;
76284;SDS011;71676;50.998;7.098;2023-10-19T04:23:09;6.88;;;3.55;;
76284;SDS011;71676;50.998;7.098;2023-10-19T04:25:39;7.85;;;3.33;;
76284;SDS011;71676;50.998;7.098;2023-10-19T04:28:05;8.25;;;3.53;;
76284;SDS011;71676;50.998;7.098;2023-10-19T04:30:32;8.40;;;3.50;;
76284;SDS011;71676;50.998;7.098;2023-10-19T04:33:02;6.82;;;3.42;;
76284;SDS011;71676;50.998;7.098;2023-10-19T04:35:33;7.45;;;3.15;;
76284;SDS011;71676;50.998;7.098;2023-10-19T04:38:00;6.65;;;3.20;;
76284;SDS011;71676;50.998;7.098;2023-10-19T04:40:28;7.07;;;3.20;;
76284;SDS011;71676;50.998;7.098;2023-10-19T04:42:55;7.00;;;3.17;;
76284;SDS011;71676;50.998;7.098;2023-10-19T04:45:21;7.53;;;2.97;;
76284;SDS011;71676;50.998;7.098;2023-10-19T04:47:49;5.80;;;3.00;;
76284;SDS011;71676;50.998;7.098;2023-10-19T04:50:17;6.78;;;3.00;;
76284;SDS011;71676;50.998;7.098;2023-10-19T04:52:44;6.07;;;3.28;;
76284;SDS011;71676;50.998;7.098;2023-10-19T04:55:11;8.35;;;3.20;;
76284;SDS011;71676;50.998;7.098;2023-10-19T04:57:39;6.68;;;3.00;;
76284;SDS011;71676;50.998;7.098;2023-10-19T05:00:06;6.80;;;2.65;;
76284;SDS011;71676;50.998;7.098;2023-10-19T05:02:38;6.20;;;2.45;;
76284;SDS011;71676;50.998;7.098;2023-10-19T05:05:05;6.90;;;2.58;;
76284;SDS011;71676;50.998;7.098;2023-10-19T05:07:32;7.18;;;3.00;;
76284;SDS011;71676;50.998;7.098;2023-10-19T05:09:59;7.22;;;2.95;;
76284;SDS011;71676;50.998;7.098;2023-10-19T05:12:27;7.50;;;2.80;;
76284;SDS011;71676;50.998;7.098;2023-10-19T05:14:55;6.18;;;2.53;;
76284;SDS011;71676;50.998;7.098;2023-10-19T05:17:21;6.55;;;2.45;;
76284;SDS011;71676;50.998;7.098;2023-10-19T05:19:48;6.30;;;2.63;;
76284;SDS011;71676;50.998;7.098;2023-10-19T05:22:16;6.75;;;2.80;;
76284;SDS011;71676;50.998;7.098;2023-10-19T05:24:43;7.32;;;3.05;;
76284;SDS011;71676;50.998;7.098;2023-10-19T05:27:09;5.75;;;2.55;;
76284;SDS011;71676;50.998;7.098;2023-10-19T05:29:36;6.78;;;2.70;;
76284;SDS011;71676;50.998;7.098;2023-10-19T05:32:06;7.72;;;2.70;;
76284;SDS011;71676;50.998;7.098;2023-10-19T05:34:34;5.20;;;2.63;;
76284;SDS011;71676;50.998;7.098;2023-10-19T05:37:01;10.75;;;3.00;;
76284;SDS011;71676;50.998;7.098;2023-10-19T05:39:30;6.57;;;2.53;;
76284;SDS011;71676;50.998;7.098;2023-10-19T05:41:58;6.15;;;2.35;;
76284;SDS011;71676;50.998;7.098;2023-10-19T05:44:25;5.43;;;2.35;;
76284;SDS011;71676;50.998;7.098;2023-10-19T05:46:52;6.97;;;2.83;;
76284;SDS011;71676;50.998;7.098;2023-10-19T05:49:21;6.75;;;2.90;;
76284;SDS011;71676;50.998;7.098;2023-10-19T05:51:49;6.75;;;2.75;;
76284;SDS011;71676;50.998;7.098;2023-10-19T05:54:15;6.03;;;2.50;;
76284;SDS011;71676;50.998;7.098;2023-10-19T05:56:43;6.07;;;2.35;;
76284;SDS011;71676;50.998;7.098;2023-10-19T05:59:11;5.95;;;2.40;;
76284;SDS011;71676;50.998;7.098;2023-10-19T06:01:38;7.20;;;2.50;;
76284;SDS011;71676;50.998;7.098;2023-10-19T06:04:06;7.85;;;2.72;;
76284;SDS011;71676;50.998;7.098;2023-10-19T06:06:34;6.43;;;2.60;;
76284;SDS011;71676;50.998;7.098;2023-10-19T06:09:01;6.47;;;2.47;;
76284;SDS011;71676;50.998;7.098;2023-10-19T06:11:29;7.00;;;2.47;;
76284;SDS011;71676;50.998;7.098;2023-10-19T06:13:57;6.93;;;2.60;;
76284;SDS011;71676;50.998;7.098;2023-10-19T06:16:24;7.38;;;2.50;;
76284;SDS011;71676;50.998;7.098;2023-10-19T06:18:52;5.68;;;2.13;;
76284;SDS011;71676;50.998;7.098;2023-10-19T06:21:19;7.35;;;2.60;;
76284;SDS011;71676;50.998;7.098;2023-10-19T06:23:47;5.35;;;2.25;;
76284;SDS011;71676;50.998;7.098;2023-10-19T06:26:15;5.72;;;2.53;;
76284;SDS011;71676;50.998;7.098;2023-10-19T06:28:42;7.00;;;2.33;;
76284;SDS011;71676;50.998;7.098;2023-10-19T06:31:08;6.47;;;2.28;;
76284;SDS011;71676;50.998;7.098;2023-10-19T06:33:35;4.63;;;2.25;;
76284;SDS011;71676;50.998;7.098;2023-10-19T06:36:06;5.45;;;2.70;;
76284;SDS011;71676;50.998;7.098;2023-10-19T06:38:34;6.35;;;2.42;;
76284;SDS011;71676;50.998;7.098;2023-10-19T06:41:02;6.82;;;2.80;;
76284;SDS011;71676;50.998;7.098;2023-10-19T06:43:36;9.07;;;3.25;;
76284;SDS011;71676;50.998;7.098;2023-10-19T06:46:03;6.43;;;2.47;;
76284;SDS011;71676;50.998;7.098;2023-10-19T06:48:29;7.40;;;2.72;;
76284;SDS011;71676;50.998;7.098;2023-10-19T06:50:56;6.72;;;2.97;;
76284;SDS011;71676;50.998;7.098;2023-10-19T06:53:23;8.13;;;2.90;;
76284;SDS011;71676;50.998;7.098;2023-10-19T06:55:49;6.72;;;2.85;;
76284;SDS011;71676;50.998;7.098;2023-10-19T06:58:18;8.27;;;3.08;;
76284;SDS011;71676;50.998;7.098;2023-10-19T07:00:45;6.25;;;2.88;;
76284;SDS011;71676;50.998;7.098;2023-10-19T07:03:21;7.63;;;2.83;;
76284;SDS011;71676;50.998;7.098;2023-10-19T07:05:48;8.85;;;3.33;;
76284;SDS011;71676;50.998;7.098;2023-10-19T07:08:15;8.75;;;3.40;;
76284;SDS011;71676;50.998;7.098;2023-10-19T07:10:44;8.20;;;2.97;;
76284;SDS011;71676;50.998;7.098;2023-10-19T07:13:10;8.07;;;2.97;;
76284;SDS011;71676;50.998;7.098;2023-10-19T07:15:39;8.00;;;3.22;;
76284;SDS011;71676;50.998;7.098;2023-10-19T07:18:06;7.10;;;3.10;;
76284;SDS011;71676;50.998;7.098;2023-10-19T07:20:34;7.25;;;3.00;;
76284;SDS011;71676;50.998;7.098;2023-10-19T07:23:03;8.93;;;3.05;;
76284;SDS011;71676;50.998;7.098;2023-10-19T07:25:35;8.60;;;3.25;;
76284;SDS011;71676;50.998;7.098;2023-10-19T07:28:08;6.32;;;2.90;;
76284;SDS011;71676;50.998;7.098;2023-10-19T07:30:35;7.22;;;3.10;;
76284;SDS011;71676;50.998;7.098;2023-10-19T07:33:03;7.32;;;3.03;;
76284;SDS011;71676;50.998;7.098;2023-10-19T07:35:33;9.27;;;3.28;;
76284;SDS011;71676;50.998;7.098;2023-10-19T07:38:03;6.43;;;2.58;;
76284;SDS011;71676;50.998;7.098;2023-10-19T07:40:32;8.25;;;3.08;;
76284;SDS011;71676;50.998;7.098;2023-10-19T07:42:58;7.30;;;2.95;;
76284;SDS011;71676;50.998;7.098;2023-10-19T07:45:25;7.05;;;3.00;;
76284;SDS011;71676;50.998;7.098;2023-10-19T07:47:52;6.97;;;3.20;;
76284;SDS011;71676;50.998;7.098;2023-10-19T07:50:20;7.47;;;3.10;;
76284;SDS011;71676;50.998;7.098;2023-10-19T07:52:50;6.07;;;2.67;;
76284;SDS011;71676;50.998;7.098;2023-10-19T07:55:21;11.32;;;3.15;;
76284;SDS011;71676;50.998;7.098;2023-10-19T07:57:49;7.93;;;3.10;;
76284;SDS011;71676;50.998;7.098;2023-10-19T08:00:16;7.32;;;2.78;;
76284;SDS011;71676;50.998;7.098;2023-10-19T08:02:43;6.38;;;2.40;;
76284;SDS011;71676;50.998;7.098;2023-10-19T08:05:11;6.88;;;2.63;;
76284;SDS011;71676;50.998;7.098;2023-10-19T08:07:39;8.15;;;2.40;;
76284;SDS011;71676;50.998;7.098;2023-10-19T08:10:08;8.00;;;2.60;;
76284;SDS011;71676;50.998;7.098;2023-10-19T08:12:36;7.03;;;2.50;;
76284;SDS011;71676;50.998;7.098;2023-10-19T08:15:03;8.13;;;2.33;;
76284;SDS011;71676;50.998;7.098;2023-10-19T08:17:32;6.82;;;2.50;;
76284;SDS011;71676;50.998;7.098;2023-10-19T08:19:59;8.77;;;2.63;;
76284;SDS011;71676;50.998;7.098;2023-10-19T08:22:27;5.15;;;2.08;;
76284;SDS011;71676;50.998;7.098;2023-10-19T08:24:57;4.93;;;2.58;;
76284;SDS011;71676;50.998;7.098;2023-10-19T08:27:24;7.50;;;2.50;;
76284;SDS011;71676;50.998;7.098;2023-10-19T08:29:50;6.40;;;2.35;;
76284;SDS011;71676;50.998;7.098;2023-10-19T08:32:17;7.07;;;2.33;;
76284;SDS011;71676;50.998;7.098;2023-10-19T08:34:44;6.60;;;2.30;;
76284;SDS011;71676;50.998;7.098;2023-10-19T08:37:10;7.47;;;2.20;;
76284;SDS011;71676;50.998;7.098;2023-10-19T08:39:38;7.45;;;2.20;;
76284;SDS011;71676;50.998;7.098;2023-10-19T08:42:06;4.93;;;2.10;;
76284;SDS011;71676;50.998;7.098;2023-10-19T08:44:35;5.13;;;1.90;;
76284;SDS011;71676;50.998;7.098;2023-10-19T08:47:02;6.47;;;2.22;;
76284;SDS011;71676;50.998;7.098;2023-10-19T08:49:30;7.95;;;2.13;;
76284;SDS011;71676;50.998;7.098;2023-10-19T08:51:57;6.18;;;1.63;;
76284;SDS011;71676;50.998;7.098;2023-10-19T08:54:26;6.28;;;1.90;;
76284;SDS011;71676;50.998;7.098;2023-10-19T08:56:52;7.93;;;1.70;;
76284;SDS011;71676;50.998;7.098;2023-10-19T08:59:22;5.70;;;1.80;;
76284;SDS011;71676;50.998;7.098;2023-10-19T09:01:48;5.85;;;1.50;;
76284;SDS011;71676;50.998;7.098;2023-10-19T09:04:15;6.45;;;1.70;;
76284;SDS011;71676;50.998;7.098;2023-10-19T09:06:42;7.47;;;1.50;;
76284;SDS011;71676;50.998;7.098;2023-10-19T09:09:10;6.10;;;1.50;;
76284;SDS011;71676;50.998;7.098;2023-10-19T09:11:41;6.70;;;1.70;;
76284;SDS011;71676;50.998;7.098;2023-10-19T09:14:08;8.05;;;1.60;;
76284;SDS011;71676;50.998;7.098;2023-10-19T09:16:39;6.45;;;1.35;;
76284;SDS011;71676;50.998;7.098;2023-10-19T09:19:21;6.03;;;1.40;;
76284;SDS011;71676;50.998;7.098;2023-10-19T09:21:47;5.00;;;1.20;;
76284;SDS011;71676;50.998;7.098;2023-10-19T09:24:14;5.82;;;1.58;;
76284;SDS011;71676;50.998;7.098;2023-10-19T09:26:41;6.88;;;1.30;;
76284;SDS011;71676;50.998;7.098;2023-10-19T09:29:08;6.32;;;1.40;;
76284;SDS011;71676;50.998;7.098;2023-10-19T09:31:45;6.20;;;1.67;;
76284;SDS011;71676;50.998;7.098;2023-10-19T09:34:13;7.95;;;1.83;;
76284;SDS011;71676;50.998;7.098;2023-10-19T09:36:42;6.43;;;1.63;;
76284;SDS011;71676;50.998;7.098;2023-10-19T09:39:09;5.45;;;1.38;;
76284;SDS011;71676;50.998;7.098;2023-10-19T09:41:37;7.82;;;1.50;;
76284;SDS011;71676;50.998;7.098;2023-10-19T09:44:06;7.90;;;1.40;;
76284;SDS011;71676;50.998;7.098;2023-10-19T09:46:37;6.80;;;1.45;;
76284;SDS011;71676;50.998;7.098;2023-10-19T09:49:08;5.30;;;1.50;;
76284;SDS011;71676;50.998;7.098;2023-10-19T09:51:38;5.35;;;1.40;;
76284;SDS011;71676;50.998;7.098;2023-10-19T09:54:07;7.30;;;1.30;;
76284;SDS011;71676;50.998;7.098;2023-10-19T09:56:43;6.35;;;1.42;;
76284;SDS011;71676;50.998;7.098;2023-10-19T09:59:19;5.60;;;1.45;;
76284;SDS011;71676;50.998;7.098;2023-10-19T10:02:06;6.10;;;1.52;;
76284;SDS011;71676;50.998;7.098;2023-10-19T10:04:37;5.70;;;1.30;;
76284;SDS011;71676;50.998;7.098;2023-10-19T10:07:05;6.40;;;1.30;;
76284;SDS011;71676;50.998;7.098;2023-10-19T10:09:33;5.97;;;1.27;;
76284;SDS011;71676;50.998;7.098;2023-10-19T10:12:17;6.80;;;1.40;;
76284;SDS011;71676;50.998;7.098;2023-10-19T10:14:55;7.35;;;1.60;;
76284;SDS011;71676;50.998;7.098;2023-10-19T10:17:24;8.23;;;2.08;;
76284;SDS011;71676;50.998;7.098;2023-10-19T10:19:54;8.05;;;1.40;;
76284;SDS011;71676;50.998;7.098;2023-10-19T10:22:24;5.75;;;1.40;;
76284;SDS011;71676;50.998;7.098;2023-10-19T10:24:55;9.27;;;1.90;;
76284;SDS011;71676;50.998;7.098;2023-10-19T10:27:22;8.63;;;1.70;;
76284;SDS011;71676;50.998;7.098;2023-10-19T10:29:55;7.60;;;1.58;;
76284;SDS011;71676;50.998;7.098;2023-10-19T10:35:10;8.68;;;1.70;;
76284;SDS011;71676;50.998;7.098;2023-10-19T10:38:15;5.88;;;1.50;;
76284;SDS011;71676;50.998;7.098;2023-10-19T10:40:42;5.78;;;1.27;;
76284;SDS011;71676;50.998;7.098;2023-10-19T10:43:09;5.88;;;1.70;;
76284;SDS011;71676;50.998;7.098;2023-10-19T10:45:36;6.75;;;1.35;;
76284;SDS011;71676;50.998;7.098;2023-10-19T10:48:03;5.18;;;1.50;;
76284;SDS011;71676;50.998;7.098;2023-10-19T10:50:32;4.35;;;1.27;;
76284;SDS011;71676;50.998;7.098;2023-10-19T10:52:59;7.30;;;1.45;;
76284;SDS011;71676;50.998;7.098;2023-10-19T10:55:26;8.07;;;1.50;;
76284;SDS011;71676;50.998;7.098;2023-10-19T10:57:54;8.52;;;1.45;;
76284;SDS011;71676;50.998;7.098;2023-10-19T11:00:20;4.47;;;1.50;;
76284;SDS011;71676;50.998;7.098;2023-10-19T11:02:58;8.45;;;1.70;;
76284;SDS011;71676;50.998;7.098;2023-10-19T11:05:26;6.13;;;1.63;;
76284;SDS011;71676;50.998;7.098;2023-10-19T11:08:04;5.43;;;1.35;;
76284;SDS011;71676;50.998;7.098;2023-10-19T11:10:32;6.75;;;1.65;;
76284;SDS011;71676;50.998;7.098;2023-10-19T11:13:00;9.45;;;2.53;;
76284;SDS011;71676;50.998;7.098;2023-10-19T11:15:27;10.40;;;2.55;;
76284;SDS011;71676;50.998;7.098;2023-10-19T11:17:54;8.70;;;2.45;;
76284;SDS011;71676;50.998;7.098;2023-10-19T11:20:21;6.95;;;2.00;;
76284;SDS011;71676;50.998;7.098;2023-10-19T11:22:49;8.10;;;2.40;;
76284;SDS011;71676;50.998;7.098;2023-10-19T11:25:21;6.97;;;2.28;;
76284;SDS011;71676;50.998;7.098;2023-10-19T11:27:48;8.45;;;2.20;;
76284;SDS011;71676;50.998;7.098;2023-10-19T11:30:22;5.63;;;1.70;;
76284;SDS011;71676;50.998;7.098;2023-10-19T11:32:49;7.13;;;1.70;;
76284;SDS011;71676;50.998;7.098;2023-10-19T11:35:18;8.88;;;1.90;;
76284;SDS011;71676;50.998;7.098;2023-10-19T11:37:45;9.27;;;1.77;;
76284;SDS011;71676;50.998;7.098;2023-10-19T11:40:12;6.75;;;1.40;;
76284;SDS011;71676;50.998;7.098;2023-10-19T11:42:40;4.55;;;1.50;;
76284;SDS011;71676;50.998;7.098;2023-10-19T11:45:07;8.32;;;1.85;;
76284;SDS011;71676;50.998;7.098;2023-10-19T11:47:36;9.23;;;1.73;;
76284;SDS011;71676;50.998;7.098;2023-10-19T11:50:03;5.57;;;1.73;;
76284;SDS011;71676;50.998;7.098;2023-10-19T11:52:30;6.63;;;1.70;;
76284;SDS011;71676;50.998;7.098;2023-10-19T11:54:58;8.55;;;1.63;;
76284;SDS011;71676;50.998;7.098;2023-10-19T11:57:25;8.25;;;2.08;;
76284;SDS011;71676;50.998;7.098;2023-10-19T11:59:53;7.68;;;1.63;;
76284;SDS011;71676;50.998;7.098;2023-10-19T12:02:19;8.40;;;1.77;;
76284;SDS011;71676;50.998;7.098;2023-10-19T12:04:46;6.88;;;1.50;;
76284;SDS011;71676;50.998;7.098;2023-10-19T12:07:13;6.75;;;1.85;;
76284;SDS011;71676;50.998;7.098;2023-10-19T12:09:39;8.82;;;1.70;;
76284;SDS011;71676;50.998;7.098;2023-10-19T12:12:06;5.90;;;1.60;;
76284;SDS011;71676;50.998;7.098;2023-10-19T12:14:34;7.00;;;1.60;;
76284;SDS011;71676;50.998;7.098;2023-10-19T12:17:02;7.32;;;1.60;;
76284;SDS011;71676;50.998;7.098;2023-10-19T12:19:31;6.97;;;1.75;;
76284;SDS011;71676;50.998;7.098;2023-10-19T12:21:59;8.80;;;2.08;;
76284;SDS011;71676;50.998;7.098;2023-10-19T12:24:26;7.25;;;1.75;;
76284;SDS011;71676;50.998;7.098;2023-10-19T12:26:54;11.18;;;2.58;;
76284;SDS011;71676;50.998;7.098;2023-10-19T12:29:21;8.02;;;3.05;;
76284;SDS011;71676;50.998;7.098;2023-10-19T12:31:48;14.27;;;4.40;;
76284;SDS011;71676;50.998;7.098;2023-10-19T12:34:16;9.88;;;2.90;;
76284;SDS011;71676;50.998;7.098;2023-10-19T12:36:42;7.20;;;1.65;;
76284;SDS011;71676;50.998;7.098;2023-10-19T12:39:11;6.88;;;1.92;;
76284;SDS011;71676;50.998;7.098;2023-10-19T12:41:59;10.00;;;1.80;;
76284;SDS011;71676;50.998;7.098;2023-10-19T12:44:26;7.70;;;1.92;;
76284;SDS011;71676;50.998;7.098;2023-10-19T12:46:54;8.48;;;1.58;;
76284;SDS011;71676;50.998;7.098;2023-10-19T12:49:23;8.43;;;1.52;;
76284;SDS011;71676;50.998;7.098;2023-10-19T12:51:52;9.35;;;1.98;;
76284;SDS011;71676;50.998;7.098;2023-10-19T12:54:19;9.80;;;1.85;;
76284;SDS011;71676;50.998;7.098;2023-10-19T12:56:46;7.07;;;1.95;;
76284;SDS011;71676;50.998;7.098;2023-10-19T12:59:14;8.95;;;1.83;;
76284;SDS011;71676;50.998;7.098;2023-10-19T13:01:43;8.90;;;1.98;;
76284;SDS011;71676;50.998;7.098;2023-10-19T13:04:13;12.90;;;2.50;;
76284;SDS011;71676;50.998;7.098;2023-10-19T13:06:43;6.25;;;1.80;;
76284;SDS011;71676;50.998;7.098;2023-10-19T13:09:12;7.95;;;2.15;;
76284;SDS011;71676;50.998;7.098;2023-10-19T13:11:41;9.10;;;2.78;;
76284;SDS011;71676;50.998;7.098;2023-10-19T13:14:08;8.48;;;2.10;;
76284;SDS011;71676;50.998;7.098;2023-10-19T13:16:37;8.80;;;1.98;;
76284;SDS011;71676;50.998;7.098;2023-10-19T13:19:03;7.30;;;2.05;;
76284;SDS011;71676;50.998;7.098;2023-10-19T13:21:38;8.07;;;1.85;;
76284;SDS011;71676;50.998;7.098;2023-10-19T13:24:08;7.22;;;1.75;;
76284;SDS011;71676;50.998;7.098;2023-10-19T13:26:35;8.45;;;2.03;;
76284;SDS011;71676;50.998;7.098;2023-10-19T13:29:03;7.43;;;1.67;;
76284;SDS011;71676;50.998;7.098;2023-10-19T13:31:30;7.10;;;1.92;;
76284;SDS011;71676;50.998;7.098;2023-10-19T13:33:57;7.05;;;1.90;;
76284;SDS011;71676;50.998;7.098;2023-10-19T13:36:24;7.68;;;1.83;;
76284;SDS011;71676;50.998;7.098;2023-10-19T13:38:51;7.05;;;2.10;;
76284;SDS011;71676;50.998;7.098;2023-10-19T13:41:19;9.50;;;2.20;;
76284;SDS011;71676;50.998;7.098;2023-10-19T13:43:46;6.25;;;2.30;;
76284;SDS011;71676;50.998;7.098;2023-10-19T13:46:13;9.43;;;2.85;;
76284;SDS011;71676;50.998;7.098;2023-10-19T13:48:40;9.35;;;2.60;;
76284;SDS011;71676;50.998;7.098;2023-10-19T13:51:07;11.70;;;4.07;;
76284;SDS011;71676;50.998;7.098;2023-10-19T13:53:38;9.27;;;2.33;;
76284;SDS011;71676;50.998;7.098;2023-10-19T13:56:07;7.05;;;2.03;;
76284;SDS011;71676;50.998;7.098;2023-10-19T13:58:36;7.53;;;1.73;;
76284;SDS011;71676;50.998;7.098;2023-10-19T14:01:06;8.02;;;2.00;;
76284;SDS011;71676;50.998;7.098;2023-10-19T14:03:33;8.40;;;2.40;;
76284;SDS011;71676;50.998;7.098;2023-10-19T14:06:02;9.57;;;2.00;;
76284;SDS011;71676;50.998;7.098;2023-10-19T14:08:29;9.60;;;2.25;;
76284;SDS011;71676;50.998;7.098;2023-10-19T14:11:00;7.75;;;2.10;;
76284;SDS011;71676;50.998;7.098;2023-10-19T14:13:27;11.80;;;2.00;;
76284;SDS011;71676;50.998;7.098;2023-10-19T14:15:55;7.20;;;1.92;;
76284;SDS011;71676;50.998;7.098;2023-10-19T14:18:22;7.25;;;1.88;;
76284;SDS011;71676;50.998;7.098;2023-10-19T14:20:48;8.15;;;2.05;;
76284;SDS011;71676;50.998;7.098;2023-10-19T14:23:15;7.47;;;2.13;;
76284;SDS011;71676;50.998;7.098;2023-10-19T14:25:42;10.90;;;1.90;;
76284;SDS011;71676;50.998;7.098;2023-10-19T14:28:09;6.53;;;1.88;;
76284;SDS011;71676;50.998;7.098;2023-10-19T14:30:37;7.00;;;2.28;;
76284;SDS011;71676;50.998;7.098;2023-10-19T14:33:05;11.00;;;2.80;;
76284;SDS011;71676;50.998;7.098;2023-10-19T14:35:35;7.03;;;2.13;;
76284;SDS011;71676;50.998;7.098;2023-10-19T14:38:04;10.48;;;2.50;;
76284;SDS011;71676;50.998;7.098;2023-10-19T14:40:31;8.45;;;1.90;;
76284;SDS011;71676;50.998;7.098;2023-10-19T14:42:58;6.65;;;2.30;;
76284;SDS011;71676;50.998;7.098;2023-10-19T14:45:26;7.38;;;2.10;;
76284;SDS011;71676;50.998;7.098;2023-10-19T14:47:54;7.30;;;2.22;;
76284;SDS011;71676;50.998;7.098;2023-10-19T14:50:24;9.07;;;2.20;;
76284;SDS011;71676;50.998;7.098;2023-10-19T14:52:52;8.85;;;2.80;;
76284;SDS011;71676;50.998;7.098;2023-10-19T14:55:19;8.60;;;2.47;;
76284;SDS011;71676;50.998;7.098;2023-10-19T14:57:47;8.57;;;2.67;;
76284;SDS011;71676;50.998;7.098;2023-10-19T15:00:16;8.05;;;2.17;;
76284;SDS011;71676;50.998;7.098;2023-10-19T15:02:48;9.57;;;2.40;;
76284;SDS011;71676;50.998;7.098;2023-10-19T15:05:15;6.10;;;2.40;;
76284;SDS011;71676;50.998;7.098;2023-10-19T15:07:44;6.00;;;2.72;;
76284;SDS011;71676;50.998;7.098;2023-10-19T15:10:12;11.40;;;2.80;;
76284;SDS011;71676;50.998;7.098;2023-10-19T15:12:39;8.45;;;2.67;;